Time;durP1;ratioP1;P1;durP2;ratioP2;P2;SDS_P1;SDS_P2;PMS_P1;PMS_P2;Temp;Humidity;BMP_temperature;BMP_pressure;BME280_temperature;BME280_humidity;BME280_pressure;Samples;Min_cycle;Max_cycle;Signal;HPM_P1;HPM_P2
2023/03/26 00:00:03;;;;;;;;;;;;;;;;;;5024246;28;42774;-92
2023/03/26 00:02:29;;;;;;;;;;;;;;;;;;5005821;28;42994;-87
2023/03/26 00:04:55;;;;;;;;;;;;;;;;;;5005105;28;42850;-90
2023/03/26 00:07:21;;;;;;;;;;;;;;;;;;5005139;28;42907;-92
2023/03/26 00:09:47;;;;;;;;;;;;;;;;;;5021646;28;43006;-91
2023/03/26 00:12:13;;;;;;;;;;;;;;;;;;5024675;28;43357;-92
2023/03/26 00:14:39;;;;;;;;;;;;;;;;;;5022465;28;43050;-91
2023/03/26 00:17:07;;;;;;;;;;;;;;;;;;5022510;28;44482;-92
2023/03/26 00:19:33;;;;;;;;;;;;;;;;;;5024134;28;43011;-91
2023/03/26 00:21:59;;;;;;;;;;;;;;;;;;5011539;28;43402;-85
2023/03/26 00:24:28;;;;;;;;;;;;;;;;;;5008550;28;43036;-90
2023/03/26 00:26:54;;;;;;;;;;;;;;;;;;5016702;28;44476;-92
2023/03/26 00:29:21;;;;;;;;;;;;;;;;;;5016215;28;42924;-91
2023/03/26 00:31:47;;;;;;;;;;;;;;;;;;5019024;28;42909;-86
2023/03/26 00:34:14;;;;;;;;;;;;;;;;;;5021254;28;42960;-78
2023/03/26 00:36:41;;;;;;;;;;;;;;;;;;5017280;28;42928;-84
2023/03/26 00:39:07;;;;;;;;;;;;;;;;;;5014360;28;43014;-78
2023/03/26 00:41:35;;;;;;;;;;;;;;;;;;5024666;28;43063;-79
2023/03/26 00:44:01;;;;;;;;;;;;;;;;;;5017469;28;43667;-86
2023/03/26 00:46:27;;;;;;;;;;;;;;;;;;5020354;28;43157;-78
2023/03/26 00:48:53;;;;;;;;;;;;;;;;;;5020566;28;42923;-78
2023/03/26 00:51:19;;;;;;;;;;;;;;;;;;5023210;28;44318;-78
2023/03/26 00:53:45;;;;;;;;;;;;;;;;;;5024195;28;43241;-78
2023/03/26 00:56:11;;;;;;;;;;;;;;;;;;5026200;28;43057;-77
2023/03/26 00:58:37;;;;;;;;;;;;;;;;;;5024865;28;43162;-76
2023/03/26 01:01:03;;;;;;;;;;;;;;;;;;5026842;28;43003;-77
2023/03/26 01:03:28;;;;;;;;;;;;;;;;;;5026289;28;43083;-78
2023/03/26 01:05:54;;;;;;;;;;;;;;;;;;5025534;28;43242;-79
2023/03/26 01:08:21;;;;;;;;;;;;;;;;;;5022882;28;43067;-78
2023/03/26 01:10:51;;;;;;;;;;;;;;;;;;5025759;28;44377;-78
2023/03/26 01:13:17;;;;;;;;;;;;;;;;;;5026071;28;43020;-78
2023/03/26 01:15:43;;;;;;;;;;;;;;;;;;5024582;28;44719;-79
2023/03/26 01:18:12;;;;;;;;;;;;;;;;;;5025408;28;43173;-77
2023/03/26 01:20:38;;;;;;;;;;;;;;;;;;5025771;28;44698;-78
2023/03/26 01:23:04;;;;;;;;;;;;;;;;;;5025212;28;42936;-78
2023/03/26 01:25:30;;;;;;;;;;;;;;;;;;5024405;28;45427;-78
2023/03/26 01:27:56;;;;;;;;;;;;;;;;;;5019202;28;43189;-78
2023/03/26 01:30:22;;;;;;;;;;;;;;;;;;5025873;28;43161;-77
2023/03/26 01:32:48;;;;;;;;;;;;;;;;;;5024451;28;43020;-79
2023/03/26 01:35:14;;;;;;;;;;;;;;;;;;5024831;28;43724;-76
2023/03/26 01:37:40;;;;;;;;;;;;;;;;;;5025692;28;43299;-76
2023/03/26 01:40:05;;;;;;;;;;;;;;;;;;5024936;28;42900;-77
2023/03/26 01:42:31;;;;;;;;;;;;;;;;;;5025817;28;43032;-77
2023/03/26 01:44:57;;;;;;;;;;;;;;;;;;5023213;28;42967;-77
2023/03/26 01:47:23;;;;;;;;;;;;;;;;;;5020541;28;43261;-77
2023/03/26 01:49:49;;;;;;;;;;;;;;;;;;5025094;28;43198;-75
2023/03/26 01:52:15;;;;;;;;;;;;;;;;;;5023362;28;42991;-76
2023/03/26 01:54:41;;;;;;;;;;;;;;;;;;5017577;28;43099;-76
2023/03/26 01:57:07;;;;;;;;;;;;;;;;;;5018585;28;43232;-76
2023/03/26 01:59:33;;;;;;;;;;;;;;;;;;5024242;28;42957;-76
2023/03/26 02:02:00;;;;;;;;;;;;;;;;;;5025466;28;43070;-76
2023/03/26 02:04:26;;;;;;;;;;;;;;;;;;5020072;28;43062;-76
2023/03/26 02:06:52;;;;;;;;;;;;;;;;;;5025671;28;42985;-76
2023/03/26 02:09:18;;;;;;;;;;;;;;;;;;5024951;28;43427;-78
2023/03/26 02:11:44;;;;;;;;;;;;;;;;;;5026039;28;42864;-80
2023/03/26 02:14:10;;;;;;;;;;;;;;;;;;5024790;28;44048;-76
2023/03/26 02:16:36;;;;;;;;;;;;;;;;;;5024188;28;42979;-76
2023/03/26 02:19:03;;;;;;;;;;;;;;;;;;5024517;28;43008;-76
2023/03/26 02:21:32;;;;;;;;;;;;;;;;;;5024664;28;42883;-77
2023/03/26 02:24:01;;;;;;;;;;;;;;;;;;5013177;28;43586;-76
2023/03/26 02:26:27;;;;;;;;;;;;;;;;;;5025409;28;43073;-79
2023/03/26 02:28:53;;;;;;;;;;;;;;;;;;5017739;28;42906;-80
2023/03/26 02:31:20;;;;;;;;;;;;;;;;;;5024847;28;42947;-77
2023/03/26 02:33:46;;;;;;;;;;;;;;;;;;5025318;28;42967;-80
2023/03/26 02:36:12;;;;;;;;;;;;;;;;;;5025347;28;43122;-80
2023/03/26 02:38:38;;;;;;;;;;;;;;;;;;5024746;28;43570;-76
2023/03/26 02:41:04;;;;;;;;;;;;;;;;;;5024649;28;42858;-77
2023/03/26 02:43:30;;;;;;;;;;;;;;;;;;5016441;28;43948;-77
2023/03/26 02:45:56;;;;;;;;;;;;;;;;;;5024573;28;42941;-76
2023/03/26 02:48:22;;;;;;;;;;;;;;;;;;5025085;28;42854;-76
2023/03/26 02:50:53;;;;;;;;;;;;;;;;;;5025173;28;42888;-76
2023/03/26 02:53:20;;;;;;;;;;;;;;;;;;5022902;28;44070;-77
2023/03/26 02:55:46;;;;;;;;;;;;;;;;;;5021233;28;43011;-77
2023/03/26 02:58:16;;;;;;;;;;;;;;;;;;5024906;28;43880;-77
2023/03/26 03:00:42;;;;;;;;;;;;;;;;;;5024961;28;42735;-80
2023/03/26 03:03:08;;;;;;;;;;;;;;;;;;5024236;28;43339;-76
2023/03/26 03:05:36;;;;;;;;;;;;;;;;;;5024846;28;42892;-77
2023/03/26 03:08:02;;;;;;;;;;;;;;;;;;5024368;28;44298;-78
2023/03/26 03:10:31;;;;;;;;;;;;;;;;;;5024831;28;43012;-78
2023/03/26 03:12:57;;;;;;;;;;;;;;;;;;5023138;28;42854;-77
2023/03/26 03:15:23;;;;;;;;;;;;;;;;;;5021246;28;43150;-77
2023/03/26 03:17:49;;;;;;;;;;;;;;;;;;5024702;28;43471;-76
2023/03/26 03:20:15;;;;;;;;;;;;;;;;;;5024319;28;42995;-77
2023/03/26 03:22:41;;;;;;;;;;;;;;;;;;5024381;28;43512;-81
2023/03/26 03:25:16;;;;;;;;;;;;;;;;;;5014864;28;43004;-77
2023/03/26 03:27:42;;;;;;;;;;;;;;;;;;5024381;28;43187;-77
2023/03/26 03:30:08;;;;;;;;;;;;;;;;;;5024174;28;43103;-78
2023/03/26 03:32:34;;;;;;;;;;;;;;;;;;5024135;28;43699;-77
2023/03/26 03:35:00;;;;;;;;;;;;;;;;;;5022101;28;43003;-78
2023/03/26 03:37:26;;;;;;;;;;;;;;;;;;5004987;28;44480;-80
2023/03/26 03:39:52;;;;;;;;;;;;;;;;;;5023231;28;43113;-76
2023/03/26 03:42:18;;;;;;;;;;;;;;;;;;5024683;28;42954;-77
2023/03/26 03:44:44;;;;;;;;;;;;;;;;;;5023889;28;43050;-79
2023/03/26 03:47:12;;;;;;;;;;;;;;;;;;5023599;28;42941;-78
2023/03/26 03:49:38;;;;;;;;;;;;;;;;;;5022662;28;42915;-78
2023/03/26 03:52:04;;;;;;;;;;;;;;;;;;5014349;28;43562;-80
2023/03/26 03:54:30;;;;;;;;;;;;;;;;;;5021600;28;42893;-78
2023/03/26 03:56:56;;;;;;;;;;;;;;;;;;5022166;28;43501;-83
2023/03/26 03:59:22;;;;;;;;;;;;;;;;;;5016042;28;42943;-79
2023/03/26 04:01:49;;;;;;;;;;;;;;;;;;5022127;28;43729;-81
2023/03/26 04:04:15;;;;;;;;;;;;;;;;;;5019089;28;44487;-83
2023/03/26 04:06:41;;;;;;;;;;;;;;;;;;5023951;28;43704;-82
2023/03/26 04:09:09;;;;;;;;;;;;;;;;;;5023407;28;43272;-84
2023/03/26 04:11:34;;;;;;;;;;;;;;;;;;5022400;28;44398;-79
2023/03/26 04:14:00;;;;;;;;;;;;;;;;;;5022082;28;43263;-78
2023/03/26 04:16:26;;;;;;;;;;;;;;;;;;5022754;28;43664;-85
2023/03/26 04:18:52;;;;;;;;;;;;;;;;;;5023201;28;43181;-79
2023/03/26 04:21:18;;;;;;;;;;;;;;;;;;5023007;28;42932;-79
2023/03/26 04:23:44;;;;;;;;;;;;;;;;;;5023250;28;42880;-79
2023/03/26 04:26:12;;;;;;;;;;;;;;;;;;5022056;28;42989;-80
2023/03/26 04:28:41;;;;;;;;;;;;;;;;;;5019663;28;42953;-85
2023/03/26 04:31:06;;;;;;;;;;;;;;;;;;5023373;28;44344;-84
2023/03/26 04:33:32;;;;;;;;;;;;;;;;;;5013986;28;42944;-83
2023/03/26 04:36:01;;;;;;;;;;;;;;;;;;5023078;28;42929;-79
2023/03/26 04:38:27;;;;;;;;;;;;;;;;;;5021366;28;42980;-79
2023/03/26 04:40:53;;;;;;;;;;;;;;;;;;5023391;28;43610;-85
2023/03/26 04:43:19;;;;;;;;;;;;;;;;;;5017868;28;42941;-79
2023/03/26 04:45:46;;;;;;;;;;;;;;;;;;5022061;28;43792;-84
2023/03/26 04:48:13;;;;;;;;;;;;;;;;;;5022746;28;43011;-80
2023/03/26 04:50:39;;;;;;;;;;;;;;;;;;5023294;28;43530;-83
2023/03/26 04:53:05;;;;;;;;;;;;;;;;;;5023103;28;43170;-84
2023/03/26 04:55:31;;;;;;;;;;;;;;;;;;5021640;28;43248;-85
2023/03/26 04:57:58;;;;;;;;;;;;;;;;;;5012320;28;43277;-84
2023/03/26 05:00:24;;;;;;;;;;;;;;;;;;5022358;28;43570;-85
2023/03/26 05:02:52;;;;;;;;;;;;;;;;;;5022803;28;42997;-79
2023/03/26 05:05:19;;;;;;;;;;;;;;;;;;5023309;28;43454;-81
2023/03/26 05:07:45;;;;;;;;;;;;;;;;;;5023352;28;42739;-81
2023/03/26 05:10:10;;;;;;;;;;;;;;;;;;5020059;28;43013;-81
2023/03/26 05:12:36;;;;;;;;;;;;;;;;;;5017443;28;43233;-80
2023/03/26 05:15:02;;;;;;;;;;;;;;;;;;4996796;28;43704;-79
2023/03/26 05:17:29;;;;;;;;;;;;;;;;;;5016734;28;43030;-84
2023/03/26 05:19:55;;;;;;;;;;;;;;;;;;5022121;28;43085;-79
2023/03/26 05:22:21;;;;;;;;;;;;;;;;;;5022723;28;43020;-84
2023/03/26 05:24:47;;;;;;;;;;;;;;;;;;5017056;28;42996;-83
2023/03/26 05:27:13;;;;;;;;;;;;;;;;;;5026499;28;42939;-80
2023/03/26 05:29:39;;;;;;;;;;;;;;;;;;5015622;28;42931;-80
2023/03/26 05:32:05;;;;;;;;;;;;;;;;;;5024662;28;43007;-81
2023/03/26 05:34:31;;;;;;;;;;;;;;;;;;5025947;28;42996;-80
2023/03/26 05:36:57;;;;;;;;;;;;;;;;;;5019236;28;43821;-81
2023/03/26 05:39:25;;;;;;;;;;;;;;;;;;5025700;28;43479;-81
2023/03/26 05:41:51;;;;;;;;;;;;;;;;;;5026685;28;42840;-80
2023/03/26 05:44:17;;;;;;;;;;;;;;;;;;5025875;28;42908;-79
2023/03/26 05:46:43;;;;;;;;;;;;;;;;;;5021803;28;42994;-81
2023/03/26 05:49:09;;;;;;;;;;;;;;;;;;5024940;28;42902;-80
2023/03/26 05:51:35;;;;;;;;;;;;;;;;;;5024780;28;42957;-81
2023/03/26 05:54:01;;;;;;;;;;;;;;;;;;5025025;28;43864;-79
2023/03/26 05:56:27;;;;;;;;;;;;;;;;;;5022844;28;42983;-80
2023/03/26 05:58:53;;;;;;;;;;;;;;;;;;5022559;28;42904;-80
2023/03/26 06:01:19;;;;;;;;;;;;;;;;;;5025488;28;43139;-81
2023/03/26 06:03:45;;;;;;;;;;;;;;;;;;5025909;28;43369;-87
2023/03/26 06:06:14;;;;;;;;;;;;;;;;;;5024712;28;43045;-85
2023/03/26 06:08:41;;;;;;;;;;;;;;;;;;5024702;28;43632;-83
2023/03/26 06:11:07;;;;;;;;;;;;;;;;;;5018960;28;43209;-80
2023/03/26 06:13:33;;;;;;;;;;;;;;;;;;5023017;28;43644;-84
2023/03/26 06:15:59;;;;;;;;;;;;;;;;;;5021751;28;43307;-83
2023/03/26 06:18:25;;;;;;;;;;;;;;;;;;5014933;28;44010;-84
2023/03/26 06:20:51;;;;;;;;;;;;;;;;;;5024710;28;43034;-81
2023/03/26 06:23:16;;;;;;;;;;;;;;;;;;5023772;28;43093;-80
2023/03/26 06:25:46;;;;;;;;;;;;;;;;;;5023562;28;43096;-78
2023/03/26 06:28:12;;;;;;;;;;;;;;;;;;5018435;28;44440;-83
2023/03/26 06:30:38;;;;;;;;;;;;;;;;;;5025510;28;42914;-81
2023/03/26 06:33:05;;;;;;;;;;;;;;;;;;5018923;28;43289;-81
2023/03/26 06:35:31;;;;;;;;;;;;;;;;;;5024298;28;42928;-81
2023/03/26 06:37:57;;;;;;;;;;;;;;;;;;5020893;28;42970;-82
2023/03/26 06:40:23;;;;;;;;;;;;;;;;;;5020419;28;42920;-85
2023/03/26 06:42:49;;;;;;;;;;;;;;;;;;5023138;28;42922;-84
2023/03/26 06:45:15;;;;;;;;;;;;;;;;;;5020441;28;43013;-82
2023/03/26 06:47:40;;;;;;;;;;;;;;;;;;5019838;28;43272;-85
2023/03/26 06:50:06;;;;;;;;;;;;;;;;;;5024673;28;44284;-82
2023/03/26 06:52:32;;;;;;;;;;;;;;;;;;5017554;28;43092;-84
2023/03/26 06:54:58;;;;;;;;;;;;;;;;;;5023337;28;42986;-84
2023/03/26 06:57:24;;;;;;;;;;;;;;;;;;5016364;28;43743;-82
2023/03/26 06:59:50;;;;;;;;;;;;;;;;;;5024479;28;42908;-82
2023/03/26 07:02:16;;;;;;;;;;;;;;;;;;5021360;28;43959;-84
2023/03/26 07:04:42;;;;;;;;;;;;;;;;;;5005790;28;43095;-84
2023/03/26 07:07:08;;;;;;;;;;;;;;;;;;5013982;28;43047;-92
2023/03/26 07:09:34;;;;;;;;;;;;;;;;;;5018669;28;42971;-84
2023/03/26 07:12:00;;;;;;;;;;;;;;;;;;5021789;28;42950;-86
2023/03/26 07:14:31;;;;;;;;;;;;;;;;;;5024125;28;42960;-84
2023/03/26 07:16:57;;;;;;;;;;;;;;;;;;5021422;28;43693;-82
2023/03/26 07:19:23;;;;;;;;;;;;;;;;;;5023415;28;43018;-85
2023/03/26 07:21:49;;;;;;;;;;;;;;;;;;5022371;28;43649;-82
2023/03/26 07:24:15;;;;;;;;;;;;;;;;;;5021039;28;43116;-84
2023/03/26 07:26:41;;;;;;;;;;;;;;;;;;5022034;28;42945;-83
2023/03/26 07:29:07;;;;;;;;;;;;;;;;;;5023384;28;42928;-83
2023/03/26 07:31:33;;;;;;;;;;;;;;;;;;5023332;28;43418;-81
2023/03/26 07:34:00;;;;;;;;;;;;;;;;;;5019034;28;42832;-83
2023/03/26 07:36:26;;;;;;;;;;;;;;;;;;5015494;28;43624;-80
2023/03/26 07:38:52;;;;;;;;;;;;;;;;;;5023399;28;43341;-80
2023/03/26 07:41:18;;;;;;;;;;;;;;;;;;5022425;28;42908;-81
2023/03/26 07:43:44;;;;;;;;;;;;;;;;;;5019979;28;43076;-81
2023/03/26 07:46:10;;;;;;;;;;;;;;;;;;5012645;28;43233;-81
2023/03/26 07:48:36;;;;;;;;;;;;;;;;;;5018211;28;43455;-81
2023/03/26 07:51:02;;;;;;;;;;;;;;;;;;5000779;28;44239;-79
2023/03/26 07:53:28;;;;;;;;;;;;;;;;;;5012436;28;43369;-79
2023/03/26 07:55:54;;;;;;;;;;;;;;;;;;5022932;28;43636;-79
2023/03/26 07:58:20;;;;;;;;;;;;;;;;;;5022481;28;42957;-81
2023/03/26 08:00:46;;;;;;;;;;;;;;;;;;5021920;28;43000;-82
2023/03/26 08:03:11;;;;;;;;;;;;;;;;;;5013566;28;43112;-81
2023/03/26 08:05:37;;;;;;;;;;;;;;;;;;5017674;28;44118;-78
2023/03/26 08:08:04;;;;;;;;;;;;;;;;;;5019471;28;43013;-78
2023/03/26 08:10:30;;;;;;;;;;;;;;;;;;5022264;28;42914;-79
2023/03/26 08:12:56;;;;;;;;;;;;;;;;;;5018144;28;43033;-79
2023/03/26 08:15:24;;;;;;;;;;;;;;;;;;5017876;28;44077;-78
2023/03/26 08:17:50;;;;;;;;;;;;;;;;;;5022314;28;43074;-79
2023/03/26 08:20:16;;;;;;;;;;;;;;;;;;5014502;28;43869;-78
2023/03/26 08:22:42;;;;;;;;;;;;;;;;;;5018523;28;42881;-81
2023/03/26 08:25:08;;;;;;;;;;;;;;;;;;5012632;28;43028;-78
2023/03/26 08:27:36;;;;;;;;;;;;;;;;;;5014499;28;43389;-80
2023/03/26 08:30:02;;;;;;;;;;;;;;;;;;5021565;28;43825;-79
2023/03/26 08:32:28;;;;;;;;;;;;;;;;;;5018059;28;43124;-81
2023/03/26 08:34:56;;;;;;;;;;;;;;;;;;5022292;28;43091;-80
2023/03/26 08:37:22;;;;;;;;;;;;;;;;;;5022260;28;43021;-81
2023/03/26 08:39:48;;;;;;;;;;;;;;;;;;5022443;28;42928;-79
2023/03/26 08:42:14;;;;;;;;;;;;;;;;;;5019499;28;43119;-80
2023/03/26 08:44:40;;;;;;;;;;;;;;;;;;5015745;28;44520;-81
2023/03/26 08:47:06;;;;;;;;;;;;;;;;;;5009290;28;43121;-79
2023/03/26 08:49:32;;;;;;;;;;;;;;;;;;5010938;28;43713;-79
2023/03/26 08:51:58;;;;;;;;;;;;;;;;;;5017713;28;43017;-79
2023/03/26 08:54:23;;;;;;;;;;;;;;;;;;5016431;28;44092;-80
2023/03/26 08:56:49;;;;;;;;;;;;;;;;;;5021435;28;43286;-80
2023/03/26 08:59:15;;;;;;;;;;;;;;;;;;5021522;28;43415;-80
2023/03/26 09:01:41;;;;;;;;;;;;;;;;;;5023154;28;43978;-80
2023/03/26 09:04:07;;;;;;;;;;;;;;;;;;5024710;28;42909;-80
2023/03/26 09:06:33;;;;;;;;;;;;;;;;;;5026013;28;42889;-81
2023/03/26 09:08:59;;;;;;;;;;;;;;;;;;5006599;28;44424;-80
2023/03/26 09:11:25;;;;;;;;;;;;;;;;;;5024967;28;43938;-80
2023/03/26 09:13:51;;;;;;;;;;;;;;;;;;5024739;28;43447;-80
2023/03/26 09:16:17;;;;;;;;;;;;;;;;;;5025842;28;42966;-79
2023/03/26 09:18:43;;;;;;;;;;;;;;;;;;5025187;28;43768;-78
2023/03/26 09:21:08;;;;;;;;;;;;;;;;;;5013885;28;43052;-79
2023/03/26 09:23:34;;;;;;;;;;;;;;;;;;5000021;28;44773;-80
2023/03/26 09:26:00;;;;;;;;;;;;;;;;;;5016806;28;43264;-79
2023/03/26 09:28:26;;;;;;;;;;;;;;;;;;5014273;28;43349;-79
2023/03/26 09:30:52;;;;;;;;;;;;;;;;;;5021208;28;43149;-80
2023/03/26 09:33:18;;;;;;;;;;;;;;;;;;5011451;28;43458;-80
2023/03/26 09:35:44;;;;;;;;;;;;;;;;;;5023967;28;43044;-78
2023/03/26 09:38:10;;;;;;;;;;;;;;;;;;5023737;28;43514;-81
2023/03/26 09:40:36;;;;;;;;;;;;;;;;;;5023836;28;43349;-80
2023/03/26 09:43:02;;;;;;;;;;;;;;;;;;5019105;28;43017;-79
2023/03/26 09:45:27;;;;;;;;;;;;;;;;;;5023422;28;42863;-81
2023/03/26 09:47:53;;;;;;;;;;;;;;;;;;5026250;28;43160;-80
2023/03/26 09:50:20;;;;;;;;;;;;;;;;;;5026134;28;43176;-81
2023/03/26 09:52:46;;;;;;;;;;;;;;;;;;5025923;28;43015;-80
2023/03/26 09:55:13;;;;;;;;;;;;;;;;;;5026737;28;42901;-81
2023/03/26 09:57:39;;;;;;;;;;;;;;;;;;5026067;28;42943;-80
2023/03/26 10:00:06;;;;;;;;;;;;;;;;;;5026203;28;42880;-82
2023/03/26 10:02:32;;;;;;;;;;;;;;;;;;5026291;28;43526;-81
2023/03/26 10:04:58;;;;;;;;;;;;;;;;;;5025995;28;42955;-79
2023/03/26 10:07:24;;;;;;;;;;;;;;;;;;5017949;28;44589;-80
2023/03/26 10:09:50;;;;;;;;;;;;;;;;;;5004200;28;42974;-80
2023/03/26 10:12:16;;;;;;;;;;;;;;;;;;5023791;28;43873;-83
2023/03/26 10:14:42;;;;;;;;;;;;;;;;;;5022531;28;43083;-85
2023/03/26 10:17:09;;;;;;;;;;;;;;;;;;5021878;28;42924;-83
2023/03/26 10:19:35;;;;;;;;;;;;;;;;;;5025907;28;42828;-82
2023/03/26 10:22:02;;;;;;;;;;;;;;;;;;5024714;28;43827;-79
2023/03/26 10:24:28;;;;;;;;;;;;;;;;;;5020453;28;44148;-79
2023/03/26 10:26:54;;;;;;;;;;;;;;;;;;5021566;28;43053;-80
2023/03/26 10:29:20;;;;;;;;;;;;;;;;;;5023179;28;42986;-81
2023/03/26 10:31:46;;;;;;;;;;;;;;;;;;5024700;28;43016;-80
2023/03/26 10:34:12;;;;;;;;;;;;;;;;;;5025481;28;42992;-81
2023/03/26 10:36:38;;;;;;;;;;;;;;;;;;5024960;28;43452;-78
2023/03/26 10:39:03;;;;;;;;;;;;;;;;;;5025425;28;42862;-81
2023/03/26 10:41:30;;;;;;;;;;;;;;;;;;5025282;28;43450;-80
2023/03/26 10:43:56;;;;;;;;;;;;;;;;;;5025097;28;43092;-79
2023/03/26 10:46:23;;;;;;;;;;;;;;;;;;5024578;28;43050;-81
2023/03/26 10:48:49;;;;;;;;;;;;;;;;;;5025344;28;42998;-80
2023/03/26 10:51:15;;;;;;;;;;;;;;;;;;5025091;28;43583;-81
2023/03/26 10:53:41;;;;;;;;;;;;;;;;;;5025695;28;42968;-81
2023/03/26 10:56:09;;;;;;;;;;;;;;;;;;5024884;28;42959;-81
2023/03/26 10:58:39;;;;;;;;;;;;;;;;;;5025415;28;42941;-78
2023/03/26 11:01:05;;;;;;;;;;;;;;;;;;5025504;28;43656;-80
2023/03/26 11:03:31;;;;;;;;;;;;;;;;;;5025511;28;43107;-80
2023/03/26 11:05:57;;;;;;;;;;;;;;;;;;5025069;28;43140;-81
2023/03/26 11:08:22;;;;;;;;;;;;;;;;;;5025612;28;42952;-80
2023/03/26 11:10:48;;;;;;;;;;;;;;;;;;5024387;28;42983;-80
2023/03/26 11:13:14;;;;;;;;;;;;;;;;;;5024969;28;43082;-80
2023/03/26 11:15:40;;;;;;;;;;;;;;;;;;5023071;28;45349;-81
2023/03/26 11:18:06;;;;;;;;;;;;;;;;;;5025235;28;43108;-80
2023/03/26 11:20:32;;;;;;;;;;;;;;;;;;5025198;28;42890;-80
2023/03/26 11:22:59;;;;;;;;;;;;;;;;;;5025265;28;43073;-80
2023/03/26 11:25:25;;;;;;;;;;;;;;;;;;5024641;28;43070;-80
2023/03/26 11:27:51;;;;;;;;;;;;;;;;;;5025555;28;42889;-80
2023/03/26 11:30:16;;;;;;;;;;;;;;;;;;5023880;28;43567;-80
2023/03/26 11:32:42;;;;;;;;;;;;;;;;;;5024768;28;42990;-80
2023/03/26 11:35:09;;;;;;;;;;;;;;;;;;5024785;28;42956;-81
2023/03/26 11:37:36;;;;;;;;;;;;;;;;;;5025188;28;42832;-81
2023/03/26 11:40:05;;;;;;;;;;;;;;;;;;5024517;28;44506;-80
2023/03/26 11:42:30;;;;;;;;;;;;;;;;;;5024451;28;42972;-79
2023/03/26 11:44:56;;;;;;;;;;;;;;;;;;5024638;28;43607;-79
2023/03/26 11:47:22;;;;;;;;;;;;;;;;;;5024512;28;43061;-81
2023/03/26 11:49:48;;;;;;;;;;;;;;;;;;5024610;28;43000;-80
2023/03/26 11:52:15;;;;;;;;;;;;;;;;;;5025095;28;43054;-81
2023/03/26 11:54:42;;;;;;;;;;;;;;;;;;5024199;28;43457;-80
2023/03/26 11:57:08;;;;;;;;;;;;;;;;;;5024515;28;42948;-80
2023/03/26 11:59:34;;;;;;;;;;;;;;;;;;5024706;28;43647;-80
2023/03/26 12:02:00;;;;;;;;;;;;;;;;;;5023081;28;43032;-80
2023/03/26 12:04:26;;;;;;;;;;;;;;;;;;5024868;28;43086;-80
2023/03/26 12:06:52;;;;;;;;;;;;;;;;;;5024579;28;42920;-80
2023/03/26 12:09:18;;;;;;;;;;;;;;;;;;5024197;28;42893;-80
2023/03/26 12:11:44;;;;;;;;;;;;;;;;;;5024655;28;42924;-80
2023/03/26 12:14:10;;;;;;;;;;;;;;;;;;5024473;28;42908;-80
2023/03/26 12:16:36;;;;;;;;;;;;;;;;;;5024752;28;43014;-79
2023/03/26 12:19:04;;;;;;;;;;;;;;;;;;5024383;28;43596;-80
2023/03/26 12:21:30;;;;;;;;;;;;;;;;;;5024225;28;42921;-80
2023/03/26 12:23:56;;;;;;;;;;;;;;;;;;5024268;28;43796;-80
2023/03/26 12:26:22;;;;;;;;;;;;;;;;;;5024186;28;42734;-81
2023/03/26 12:28:48;;;;;;;;;;;;;;;;;;5011402;28;43595;-80
2023/03/26 12:31:17;;;;;;;;;;;;;;;;;;5021873;28;42897;-81
2023/03/26 12:33:43;;;;;;;;;;;;;;;;;;5023716;28;42977;-80
2023/03/26 12:36:10;;;;;;;;;;;;;;;;;;5023363;28;42967;-80
2023/03/26 12:38:38;;;;;;;;;;;;;;;;;;5023954;28;43809;-81
2023/03/26 12:41:03;;;;;;;;;;;;;;;;;;5023402;28;42855;-79
2023/03/26 12:43:29;;;;;;;;;;;;;;;;;;5024373;28;43066;-81
2023/03/26 12:45:57;;;;;;;;;;;;;;;;;;5024144;28;43180;-81
2023/03/26 12:48:24;;;;;;;;;;;;;;;;;;5010784;28;43106;-81
2023/03/26 12:50:50;;;;;;;;;;;;;;;;;;5024363;28;43084;-80
2023/03/26 12:53:16;;;;;;;;;;;;;;;;;;5024361;28;42998;-79
2023/03/26 12:55:42;;;;;;;;;;;;;;;;;;5024021;28;42911;-78
2023/03/26 12:58:08;;;;;;;;;;;;;;;;;;5024106;28;43091;-81
2023/03/26 13:00:34;;;;;;;;;;;;;;;;;;5023661;28;43474;-80
2023/03/26 13:03:00;;;;;;;;;;;;;;;;;;5023934;28;43373;-80
2023/03/26 13:05:27;;;;;;;;;;;;;;;;;;5024487;28;43035;-80
2023/03/26 13:07:53;;;;;;;;;;;;;;;;;;5024058;28;43528;-80
2023/03/26 13:10:19;;;;;;;;;;;;;;;;;;5023361;28;42880;-80
2023/03/26 13:12:45;;;;;;;;;;;;;;;;;;5023038;28;43550;-80
2023/03/26 13:15:11;;;;;;;;;;;;;;;;;;5023709;28;42909;-80
2023/03/26 13:17:37;;;;;;;;;;;;;;;;;;5024080;28;42933;-79
2023/03/26 13:20:06;;;;;;;;;;;;;;;;;;5023817;28;42922;-78
2023/03/26 13:22:32;;;;;;;;;;;;;;;;;;5023649;28;42939;-81
2023/03/26 13:24:58;;;;;;;;;;;;;;;;;;5023779;28;42905;-81
2023/03/26 13:27:24;;;;;;;;;;;;;;;;;;5023850;28;42975;-79
2023/03/26 13:29:55;;;;;;;;;;;;;;;;;;5023345;28;42997;-80
2023/03/26 13:32:21;;;;;;;;;;;;;;;;;;5023182;28;43632;-80
2023/03/26 13:34:46;;;;;;;;;;;;;;;;;;5023070;28;43097;-80
2023/03/26 13:37:12;;;;;;;;;;;;;;;;;;5023343;28;42996;-80
2023/03/26 13:39:38;;;;;;;;;;;;;;;;;;5023097;28;43073;-80
2023/03/26 13:42:04;;;;;;;;;;;;;;;;;;5023024;28;43502;-80
2023/03/26 13:44:30;;;;;;;;;;;;;;;;;;5018061;28;43067;-80
2023/03/26 13:46:56;;;;;;;;;;;;;;;;;;5010359;28;43853;-79
2023/03/26 13:49:22;;;;;;;;;;;;;;;;;;5024702;28;43568;-76
2023/03/26 13:51:48;;;;;;;;;;;;;;;;;;5025344;28;43865;-80
2023/03/26 13:54:14;;;;;;;;;;;;;;;;;;5024961;28;43062;-81
2023/03/26 13:56:40;;;;;;;;;;;;;;;;;;5019163;28;42913;-80
2023/03/26 13:59:06;;;;;;;;;;;;;;;;;;5016929;28;43012;-82
2023/03/26 14:01:39;;;;;;;;;;;;;;;;;;5019686;28;44354;-82
2023/03/26 14:04:06;;;;;;;;;;;;;;;;;;5025847;28;43019;-80
2023/03/26 14:06:32;;;;;;;;;;;;;;;;;;5018812;28;43028;-81
2023/03/26 14:08:58;;;;;;;;;;;;;;;;;;5022059;28;43105;-80
2023/03/26 14:11:24;;;;;;;;;;;;;;;;;;5017019;28;42975;-81
2023/03/26 14:13:50;;;;;;;;;;;;;;;;;;5024259;28;42960;-81
2023/03/26 14:16:16;;;;;;;;;;;;;;;;;;5025700;28;43733;-81
2023/03/26 14:18:42;;;;;;;;;;;;;;;;;;5017631;28;43058;-82
2023/03/26 14:21:08;;;;;;;;;;;;;;;;;;5018984;28;43803;-82
2023/03/26 14:23:34;;;;;;;;;;;;;;;;;;5022281;28;42928;-82
2023/03/26 14:26:00;;;;;;;;;;;;;;;;;;5025597;28;43424;-83
2023/03/26 14:28:26;;;;;;;;;;;;;;;;;;5023925;28;42874;-85
2023/03/26 14:30:54;;;;;;;;;;;;;;;;;;5009166;28;43578;-83
2023/03/26 14:33:20;;;;;;;;;;;;;;;;;;5021075;28;43168;-85
2023/03/26 14:35:46;;;;;;;;;;;;;;;;;;5024360;28;43651;-85
2023/03/26 14:38:15;;;;;;;;;;;;;;;;;;5013289;28;59500;-84
2023/03/26 14:40:40;;;;;;;;;;;;;;;;;;5025680;28;43519;-84
2023/03/26 14:43:06;;;;;;;;;;;;;;;;;;5021528;28;43064;-82
2023/03/26 14:45:32;;;;;;;;;;;;;;;;;;5024799;28;43831;-83
2023/03/26 14:47:58;;;;;;;;;;;;;;;;;;5023034;28;42944;-83
2023/03/26 14:50:25;;;;;;;;;;;;;;;;;;5024802;28;43751;-81
2023/03/26 14:52:51;;;;;;;;;;;;;;;;;;5015491;28;43146;-81
2023/03/26 14:55:17;;;;;;;;;;;;;;;;;;5014214;28;44412;-81
2023/03/26 14:57:43;;;;;;;;;;;;;;;;;;5023146;28;43306;-83
2023/03/26 15:00:14;;;;;;;;;;;;;;;;;;5017557;28;43009;-83
2023/03/26 15:02:40;;;;;;;;;;;;;;;;;;5020814;28;43105;-84
2023/03/26 15:05:07;;;;;;;;;;;;;;;;;;5017391;28;44185;-83
2023/03/26 15:07:32;;;;;;;;;;;;;;;;;;4998285;28;43030;-84
2023/03/26 15:09:58;;;;;;;;;;;;;;;;;;5015603;28;43777;-84
2023/03/26 15:12:25;;;;;;;;;;;;;;;;;;5022334;28;42984;-84
2023/03/26 15:14:50;;;;;;;;;;;;;;;;;;5024062;28;43038;-84
2023/03/26 15:17:16;;;;;;;;;;;;;;;;;;5018746;28;43197;-83
2023/03/26 15:19:42;;;;;;;;;;;;;;;;;;5013760;28;42974;-83
2023/03/26 15:22:11;;;;;;;;;;;;;;;;;;5023123;28;43078;-84
2023/03/26 15:24:37;;;;;;;;;;;;;;;;;;5023182;28;44894;-83
2023/03/26 15:27:03;;;;;;;;;;;;;;;;;;5022449;28;43060;-84
2023/03/26 15:29:29;;;;;;;;;;;;;;;;;;5011725;28;42800;-84
2023/03/26 15:31:55;;;;;;;;;;;;;;;;;;5023412;28;42928;-85
2023/03/26 15:34:22;;;;;;;;;;;;;;;;;;5023933;28;42829;-84
2023/03/26 15:36:49;;;;;;;;;;;;;;;;;;5017786;28;43047;-77
2023/03/26 15:39:15;;;;;;;;;;;;;;;;;;5000293;28;45596;-85
2023/03/26 15:41:41;;;;;;;;;;;;;;;;;;5021292;28;43094;-84
2023/03/26 15:44:07;;;;;;;;;;;;;;;;;;5016357;28;43743;-83
2023/03/26 15:46:34;;;;;;;;;;;;;;;;;;5021486;28;43030;-83
2023/03/26 15:49:01;;;;;;;;;;;;;;;;;;5024338;28;43007;-84
2023/03/26 15:51:26;;;;;;;;;;;;;;;;;;5002633;28;42966;-85
2023/03/26 15:53:52;;;;;;;;;;;;;;;;;;5023716;28;44437;-85
2023/03/26 15:56:18;;;;;;;;;;;;;;;;;;5024328;28;42851;-84
2023/03/26 15:58:44;;;;;;;;;;;;;;;;;;5024377;28;42942;-84
2023/03/26 16:01:17;;;;;;;;;;;;;;;;;;5022368;28;42961;-84
2023/03/26 16:03:43;;;;;;;;;;;;;;;;;;5023698;28;43498;-84
2023/03/26 16:06:09;;;;;;;;;;;;;;;;;;4995715;28;43128;-85
2023/03/26 16:08:35;;;;;;;;;;;;;;;;;;5015648;28;43329;-85
2023/03/26 16:11:06;;;;;;;;;;;;;;;;;;5007803;28;43133;-84
2023/03/26 16:13:32;;;;;;;;;;;;;;;;;;5017449;28;43062;-84
2023/03/26 16:15:58;;;;;;;;;;;;;;;;;;5014985;28;42909;-84
2023/03/26 16:18:24;;;;;;;;;;;;;;;;;;5023659;28;43031;-85
2023/03/26 16:20:52;;;;;;;;;;;;;;;;;;5020881;28;43009;-84
2023/03/26 16:23:18;;;;;;;;;;;;;;;;;;5023201;28;43462;-84
2023/03/26 16:25:44;;;;;;;;;;;;;;;;;;5019630;28;42933;-83
2023/03/26 16:28:10;;;;;;;;;;;;;;;;;;5018763;28;44688;-83
2023/03/26 16:30:36;;;;;;;;;;;;;;;;;;5018125;28;43246;-84
2023/03/26 16:33:02;;;;;;;;;;;;;;;;;;5004137;28;44221;-83
2023/03/26 16:35:28;;;;;;;;;;;;;;;;;;4996222;28;43118;-84
2023/03/26 16:37:56;;;;;;;;;;;;;;;;;;5002130;28;43512;-83